sensor_id;sensor_type;location;lat;lon;timestamp;P1;durP1;ratioP1;P2;durP2;ratioP2
31652;SDS011;18261;53.648;9.910;2023-06-26T00:01:08;14.70;;;10.93;;
31652;SDS011;18261;53.648;9.910;2023-06-26T00:03:34;16.33;;;10.48;;
31652;SDS011;18261;53.648;9.910;2023-06-26T00:06:00;14.68;;;11.25;;
31652;SDS011;18261;53.648;9.910;2023-06-26T00:08:27;12.48;;;10.52;;
31652;SDS011;18261;53.648;9.910;2023-06-26T00:10:53;15.82;;;11.00;;
31652;SDS011;18261;53.648;9.910;2023-06-26T00:13:19;15.65;;;10.60;;
31652;SDS011;18261;53.648;9.910;2023-06-26T00:15:45;14.93;;;10.55;;
31652;SDS011;18261;53.648;9.910;2023-06-26T00:18:11;13.52;;;10.82;;
31652;SDS011;18261;53.648;9.910;2023-06-26T00:20:37;13.88;;;10.48;;
31652;SDS011;18261;53.648;9.910;2023-06-26T00:23:03;14.52;;;11.20;;
31652;SDS011;18261;53.648;9.910;2023-06-26T00:25:32;13.25;;;10.93;;
31652;SDS011;18261;53.648;9.910;2023-06-26T00:27:58;16.02;;;12.00;;
31652;SDS011;18261;53.648;9.910;2023-06-26T00:30:24;13.27;;;11.38;;
31652;SDS011;18261;53.648;9.910;2023-06-26T00:32:50;16.33;;;11.52;;
31652;SDS011;18261;53.648;9.910;2023-06-26T00:35:16;12.52;;;10.88;;
31652;SDS011;18261;53.648;9.910;2023-06-26T00:37:42;16.63;;;10.23;;
31652;SDS011;18261;53.648;9.910;2023-06-26T00:40:08;14.13;;;11.23;;
31652;SDS011;18261;53.648;9.910;2023-06-26T00:42:34;14.98;;;11.88;;
31652;SDS011;18261;53.648;9.910;2023-06-26T00:45:00;15.02;;;10.63;;
31652;SDS011;18261;53.648;9.910;2023-06-26T00:47:27;14.77;;;11.48;;
31652;SDS011;18261;53.648;9.910;2023-06-26T00:49:53;13.85;;;11.45;;
31652;SDS011;18261;53.648;9.910;2023-06-26T00:52:20;13.18;;;11.45;;
31652;SDS011;18261;53.648;9.910;2023-06-26T00:54:46;16.55;;;11.15;;
31652;SDS011;18261;53.648;9.910;2023-06-26T00:57:12;17.58;;;11.73;;
31652;SDS011;18261;53.648;9.910;2023-06-26T00:59:38;15.65;;;10.93;;
31652;SDS011;18261;53.648;9.910;2023-06-26T01:02:04;16.27;;;12.10;;
31652;SDS011;18261;53.648;9.910;2023-06-26T01:04:31;13.90;;;11.68;;
31652;SDS011;18261;53.648;9.910;2023-06-26T01:06:57;14.85;;;11.55;;
31652;SDS011;18261;53.648;9.910;2023-06-26T01:09:24;14.13;;;11.30;;
31652;SDS011;18261;53.648;9.910;2023-06-26T01:11:51;16.20;;;12.48;;
31652;SDS011;18261;53.648;9.910;2023-06-26T01:14:17;13.82;;;11.85;;
31652;SDS011;18261;53.648;9.910;2023-06-26T01:16:43;18.30;;;12.15;;
31652;SDS011;18261;53.648;9.910;2023-06-26T01:19:45;16.63;;;12.27;;
31652;SDS011;18261;53.648;9.910;2023-06-26T01:24:39;15.73;;;11.75;;
31652;SDS011;18261;53.648;9.910;2023-06-26T01:27:07;18.63;;;12.18;;
31652;SDS011;18261;53.648;9.910;2023-06-26T01:29:33;13.90;;;12.02;;
31652;SDS011;18261;53.648;9.910;2023-06-26T01:31:59;13.10;;;11.27;;
31652;SDS011;18261;53.648;9.910;2023-06-26T01:34:26;15.05;;;11.93;;
31652;SDS011;18261;53.648;9.910;2023-06-26T01:36:52;18.00;;;11.80;;
31652;SDS011;18261;53.648;9.910;2023-06-26T01:39:19;14.13;;;11.48;;
31652;SDS011;18261;53.648;9.910;2023-06-26T01:41:45;15.27;;;12.20;;
31652;SDS011;18261;53.648;9.910;2023-06-26T01:44:15;18.83;;;12.95;;
31652;SDS011;18261;53.648;9.910;2023-06-26T01:49:29;15.27;;;11.60;;
31652;SDS011;18261;53.648;9.910;2023-06-26T01:54:33;15.43;;;11.88;;
31652;SDS011;18261;53.648;9.910;2023-06-26T01:57:01;14.18;;;11.88;;
31652;SDS011;18261;53.648;9.910;2023-06-26T01:59:27;14.13;;;11.95;;
31652;SDS011;18261;53.648;9.910;2023-06-26T02:01:53;14.82;;;11.68;;
31652;SDS011;18261;53.648;9.910;2023-06-26T02:04:19;15.18;;;11.88;;
31652;SDS011;18261;53.648;9.910;2023-06-26T02:06:45;15.48;;;11.77;;
31652;SDS011;18261;53.648;9.910;2023-06-26T02:09:11;14.55;;;11.93;;
31652;SDS011;18261;53.648;9.910;2023-06-26T02:11:37;16.33;;;11.93;;
31652;SDS011;18261;53.648;9.910;2023-06-26T02:14:03;15.70;;;12.75;;
31652;SDS011;18261;53.648;9.910;2023-06-26T02:16:29;17.45;;;12.77;;
31652;SDS011;18261;53.648;9.910;2023-06-26T02:18:55;15.65;;;12.18;;
31652;SDS011;18261;53.648;9.910;2023-06-26T02:21:22;17.90;;;12.27;;
31652;SDS011;18261;53.648;9.910;2023-06-26T02:23:48;16.95;;;12.13;;
31652;SDS011;18261;53.648;9.910;2023-06-26T02:26:14;19.30;;;12.48;;
31652;SDS011;18261;53.648;9.910;2023-06-26T02:28:40;15.57;;;12.65;;
31652;SDS011;18261;53.648;9.910;2023-06-26T02:31:06;16.40;;;12.20;;
31652;SDS011;18261;53.648;9.910;2023-06-26T02:33:32;17.50;;;12.23;;
31652;SDS011;18261;53.648;9.910;2023-06-26T02:35:58;19.00;;;12.98;;
31652;SDS011;18261;53.648;9.910;2023-06-26T02:38:24;15.00;;;11.65;;
31652;SDS011;18261;53.648;9.910;2023-06-26T02:40:50;15.23;;;12.52;;
31652;SDS011;18261;53.648;9.910;2023-06-26T02:43:16;14.60;;;11.90;;
31652;SDS011;18261;53.648;9.910;2023-06-26T02:45:42;18.92;;;12.48;;
31652;SDS011;18261;53.648;9.910;2023-06-26T02:48:08;18.10;;;12.35;;
31652;SDS011;18261;53.648;9.910;2023-06-26T02:50:34;15.63;;;12.50;;
31652;SDS011;18261;53.648;9.910;2023-06-26T02:53:00;14.90;;;12.63;;
31652;SDS011;18261;53.648;9.910;2023-06-26T02:55:26;15.82;;;12.60;;
31652;SDS011;18261;53.648;9.910;2023-06-26T02:57:52;16.13;;;12.75;;
31652;SDS011;18261;53.648;9.910;2023-06-26T03:00:18;21.40;;;12.27;;
31652;SDS011;18261;53.648;9.910;2023-06-26T03:02:44;18.88;;;12.43;;
31652;SDS011;18261;53.648;9.910;2023-06-26T03:05:10;19.83;;;12.95;;
31652;SDS011;18261;53.648;9.910;2023-06-26T03:07:38;16.10;;;12.65;;
31652;SDS011;18261;53.648;9.910;2023-06-26T03:10:04;17.33;;;12.13;;
31652;SDS011;18261;53.648;9.910;2023-06-26T03:12:30;17.13;;;12.80;;
31652;SDS011;18261;53.648;9.910;2023-06-26T03:14:56;17.90;;;12.25;;
31652;SDS011;18261;53.648;9.910;2023-06-26T03:17:22;16.13;;;12.43;;
31652;SDS011;18261;53.648;9.910;2023-06-26T03:19:48;14.15;;;11.85;;
31652;SDS011;18261;53.648;9.910;2023-06-26T03:22:14;16.15;;;12.80;;
31652;SDS011;18261;53.648;9.910;2023-06-26T03:24:40;16.85;;;12.50;;
31652;SDS011;18261;53.648;9.910;2023-06-26T03:27:06;17.60;;;12.43;;
31652;SDS011;18261;53.648;9.910;2023-06-26T03:29:34;17.08;;;12.20;;
31652;SDS011;18261;53.648;9.910;2023-06-26T03:32:00;17.05;;;12.20;;
31652;SDS011;18261;53.648;9.910;2023-06-26T03:34:26;16.30;;;12.25;;
31652;SDS011;18261;53.648;9.910;2023-06-26T03:36:52;15.13;;;11.95;;
31652;SDS011;18261;53.648;9.910;2023-06-26T03:39:18;17.60;;;14.07;;
31652;SDS011;18261;53.648;9.910;2023-06-26T03:41:44;17.85;;;12.40;;
31652;SDS011;18261;53.648;9.910;2023-06-26T03:44:10;19.95;;;12.00;;
31652;SDS011;18261;53.648;9.910;2023-06-26T03:46:37;14.73;;;11.73;;
31652;SDS011;18261;53.648;9.910;2023-06-26T03:49:03;18.83;;;12.55;;
31652;SDS011;18261;53.648;9.910;2023-06-26T03:51:29;14.20;;;11.70;;
31652;SDS011;18261;53.648;9.910;2023-06-26T03:53:55;18.20;;;12.63;;
31652;SDS011;18261;53.648;9.910;2023-06-26T03:56:21;15.32;;;11.52;;
31652;SDS011;18261;53.648;9.910;2023-06-26T03:58:47;17.15;;;11.85;;
31652;SDS011;18261;53.648;9.910;2023-06-26T04:01:13;19.42;;;12.02;;
31652;SDS011;18261;53.648;9.910;2023-06-26T04:03:39;17.30;;;11.75;;
31652;SDS011;18261;53.648;9.910;2023-06-26T04:06:05;17.75;;;12.30;;
31652;SDS011;18261;53.648;9.910;2023-06-26T04:08:31;16.75;;;11.43;;
31652;SDS011;18261;53.648;9.910;2023-06-26T04:10:57;16.48;;;11.55;;
31652;SDS011;18261;53.648;9.910;2023-06-26T04:13:23;16.73;;;11.48;;
31652;SDS011;18261;53.648;9.910;2023-06-26T04:15:49;18.08;;;12.00;;
31652;SDS011;18261;53.648;9.910;2023-06-26T04:18:15;16.52;;;10.75;;
31652;SDS011;18261;53.648;9.910;2023-06-26T04:21:03;16.23;;;11.95;;
31652;SDS011;18261;53.648;9.910;2023-06-26T04:23:27;14.57;;;10.88;;
31652;SDS011;18261;53.648;9.910;2023-06-26T04:25:53;21.55;;;11.75;;
31652;SDS011;18261;53.648;9.910;2023-06-26T04:28:19;16.92;;;12.00;;
31652;SDS011;18261;53.648;9.910;2023-06-26T04:30:45;19.65;;;11.32;;
31652;SDS011;18261;53.648;9.910;2023-06-26T04:33:11;12.35;;;10.68;;
31652;SDS011;18261;53.648;9.910;2023-06-26T04:35:37;17.98;;;11.50;;
31652;SDS011;18261;53.648;9.910;2023-06-26T04:38:03;15.52;;;11.18;;
31652;SDS011;18261;53.648;9.910;2023-06-26T04:40:29;15.73;;;11.60;;
31652;SDS011;18261;53.648;9.910;2023-06-26T04:42:55;16.67;;;11.48;;
31652;SDS011;18261;53.648;9.910;2023-06-26T04:45:21;15.65;;;11.38;;
31652;SDS011;18261;53.648;9.910;2023-06-26T04:47:47;17.70;;;11.00;;
31652;SDS011;18261;53.648;9.910;2023-06-26T04:50:13;18.65;;;11.02;;
31652;SDS011;18261;53.648;9.910;2023-06-26T04:52:39;16.52;;;11.20;;
31652;SDS011;18261;53.648;9.910;2023-06-26T04:55:05;20.48;;;10.90;;
31652;SDS011;18261;53.648;9.910;2023-06-26T04:57:31;19.63;;;11.45;;
31652;SDS011;18261;53.648;9.910;2023-06-26T04:59:57;16.30;;;10.70;;
31652;SDS011;18261;53.648;9.910;2023-06-26T05:02:23;18.75;;;12.00;;
31652;SDS011;18261;53.648;9.910;2023-06-26T05:04:51;18.17;;;11.05;;
31652;SDS011;18261;53.648;9.910;2023-06-26T05:07:17;15.30;;;11.20;;
31652;SDS011;18261;53.648;9.910;2023-06-26T05:09:43;15.57;;;10.35;;
31652;SDS011;18261;53.648;9.910;2023-06-26T05:12:09;23.55;;;11.32;;
31652;SDS011;18261;53.648;9.910;2023-06-26T05:14:37;16.15;;;9.73;;
31652;SDS011;18261;53.648;9.910;2023-06-26T05:17:03;14.63;;;10.38;;
31652;SDS011;18261;53.648;9.910;2023-06-26T05:19:29;17.50;;;10.32;;
31652;SDS011;18261;53.648;9.910;2023-06-26T05:21:55;17.27;;;10.77;;
31652;SDS011;18261;53.648;9.910;2023-06-26T05:24:21;18.13;;;10.38;;
31652;SDS011;18261;53.648;9.910;2023-06-26T05:26:48;15.43;;;10.18;;
31652;SDS011;18261;53.648;9.910;2023-06-26T05:29:15;20.73;;;10.15;;
31652;SDS011;18261;53.648;9.910;2023-06-26T05:31:41;16.35;;;10.40;;
31652;SDS011;18261;53.648;9.910;2023-06-26T05:34:07;16.60;;;9.27;;
31652;SDS011;18261;53.648;9.910;2023-06-26T05:36:35;18.58;;;10.63;;
31652;SDS011;18261;53.648;9.910;2023-06-26T05:39:02;13.38;;;9.00;;
31652;SDS011;18261;53.648;9.910;2023-06-26T05:41:28;19.40;;;10.05;;
31652;SDS011;18261;53.648;9.910;2023-06-26T05:43:54;15.80;;;9.25;;
31652;SDS011;18261;53.648;9.910;2023-06-26T05:46:20;18.98;;;9.45;;
31652;SDS011;18261;53.648;9.910;2023-06-26T05:48:47;18.27;;;10.27;;
31652;SDS011;18261;53.648;9.910;2023-06-26T05:51:13;13.50;;;9.18;;
31652;SDS011;18261;53.648;9.910;2023-06-26T05:53:39;15.93;;;9.10;;
31652;SDS011;18261;53.648;9.910;2023-06-26T05:56:05;14.90;;;8.98;;
31652;SDS011;18261;53.648;9.910;2023-06-26T05:58:31;12.05;;;8.82;;
31652;SDS011;18261;53.648;9.910;2023-06-26T06:00:58;16.33;;;8.80;;
31652;SDS011;18261;53.648;9.910;2023-06-26T06:03:24;15.60;;;8.70;;
31652;SDS011;18261;53.648;9.910;2023-06-26T06:05:50;13.65;;;8.40;;
31652;SDS011;18261;53.648;9.910;2023-06-26T06:08:16;15.90;;;9.10;;
31652;SDS011;18261;53.648;9.910;2023-06-26T06:10:42;13.82;;;9.10;;
31652;SDS011;18261;53.648;9.910;2023-06-26T06:13:08;12.80;;;8.63;;
31652;SDS011;18261;53.648;9.910;2023-06-26T06:15:34;14.45;;;8.93;;
31652;SDS011;18261;53.648;9.910;2023-06-26T06:18:00;20.45;;;8.88;;
31652;SDS011;18261;53.648;9.910;2023-06-26T06:20:26;13.30;;;8.70;;
31652;SDS011;18261;53.648;9.910;2023-06-26T06:22:52;15.32;;;8.48;;
31652;SDS011;18261;53.648;9.910;2023-06-26T06:25:18;12.07;;;8.95;;
31652;SDS011;18261;53.648;9.910;2023-06-26T06:27:44;16.83;;;8.88;;
31652;SDS011;18261;53.648;9.910;2023-06-26T06:30:10;13.88;;;8.48;;
31652;SDS011;18261;53.648;9.910;2023-06-26T06:32:36;14.25;;;10.23;;
31652;SDS011;18261;53.648;9.910;2023-06-26T06:35:02;15.35;;;8.90;;
31652;SDS011;18261;53.648;9.910;2023-06-26T06:37:34;14.35;;;9.52;;
31652;SDS011;18261;53.648;9.910;2023-06-26T06:40:00;14.52;;;8.65;;
31652;SDS011;18261;53.648;9.910;2023-06-26T06:42:26;15.85;;;9.10;;
31652;SDS011;18261;53.648;9.910;2023-06-26T06:44:52;18.85;;;9.18;;
31652;SDS011;18261;53.648;9.910;2023-06-26T06:47:18;13.88;;;8.90;;
31652;SDS011;18261;53.648;9.910;2023-06-26T06:49:44;12.70;;;9.13;;
31652;SDS011;18261;53.648;9.910;2023-06-26T06:52:10;14.80;;;9.35;;
31652;SDS011;18261;53.648;9.910;2023-06-26T06:54:52;17.17;;;11.13;;
31652;SDS011;18261;53.648;9.910;2023-06-26T06:57:18;16.85;;;9.63;;
31652;SDS011;18261;53.648;9.910;2023-06-26T06:59:44;14.80;;;9.27;;
31652;SDS011;18261;53.648;9.910;2023-06-26T07:02:10;17.10;;;8.98;;
31652;SDS011;18261;53.648;9.910;2023-06-26T07:04:36;14.73;;;9.07;;
31652;SDS011;18261;53.648;9.910;2023-06-26T07:07:02;20.35;;;9.52;;
31652;SDS011;18261;53.648;9.910;2023-06-26T07:09:28;13.57;;;9.07;;
31652;SDS011;18261;53.648;9.910;2023-06-26T07:11:54;22.67;;;9.35;;
31652;SDS011;18261;53.648;9.910;2023-06-26T07:14:20;17.92;;;9.77;;
31652;SDS011;18261;53.648;9.910;2023-06-26T07:16:46;19.83;;;9.60;;
31652;SDS011;18261;53.648;9.910;2023-06-26T07:19:12;14.32;;;8.93;;
31652;SDS011;18261;53.648;9.910;2023-06-26T07:21:38;13.65;;;9.05;;
31652;SDS011;18261;53.648;9.910;2023-06-26T07:24:06;19.05;;;8.45;;
31652;SDS011;18261;53.648;9.910;2023-06-26T07:26:32;12.20;;;8.55;;
31652;SDS011;18261;53.648;9.910;2023-06-26T07:28:58;16.90;;;8.75;;
31652;SDS011;18261;53.648;9.910;2023-06-26T07:31:24;12.35;;;8.68;;
31652;SDS011;18261;53.648;9.910;2023-06-26T07:33:50;19.60;;;9.73;;
31652;SDS011;18261;53.648;9.910;2023-06-26T07:36:16;16.38;;;8.52;;
31652;SDS011;18261;53.648;9.910;2023-06-26T07:38:42;17.02;;;9.70;;
31652;SDS011;18261;53.648;9.910;2023-06-26T07:41:08;20.05;;;8.63;;
31652;SDS011;18261;53.648;9.910;2023-06-26T07:43:34;12.20;;;8.95;;
31652;SDS011;18261;53.648;9.910;2023-06-26T07:46:00;16.65;;;8.90;;
31652;SDS011;18261;53.648;9.910;2023-06-26T07:48:26;16.27;;;8.70;;
31652;SDS011;18261;53.648;9.910;2023-06-26T07:50:52;17.40;;;8.95;;
31652;SDS011;18261;53.648;9.910;2023-06-26T07:53:18;14.02;;;8.60;;
31652;SDS011;18261;53.648;9.910;2023-06-26T07:55:44;11.93;;;8.35;;
31652;SDS011;18261;53.648;9.910;2023-06-26T07:58:10;13.32;;;8.30;;
31652;SDS011;18261;53.648;9.910;2023-06-26T08:00:36;16.23;;;8.45;;
31652;SDS011;18261;53.648;9.910;2023-06-26T08:03:03;17.17;;;9.05;;
31652;SDS011;18261;53.648;9.910;2023-06-26T08:05:29;11.20;;;8.00;;
31652;SDS011;18261;53.648;9.910;2023-06-26T08:07:55;20.50;;;9.43;;
31652;SDS011;18261;53.648;9.910;2023-06-26T08:10:21;17.20;;;8.88;;
31652;SDS011;18261;53.648;9.910;2023-06-26T08:12:47;12.88;;;8.85;;
31652;SDS011;18261;53.648;9.910;2023-06-26T08:15:15;10.82;;;8.20;;
31652;SDS011;18261;53.648;9.910;2023-06-26T08:17:41;16.77;;;7.90;;
31652;SDS011;18261;53.648;9.910;2023-06-26T08:20:07;20.55;;;9.07;;
31652;SDS011;18261;53.648;9.910;2023-06-26T08:22:33;12.57;;;8.50;;
31652;SDS011;18261;53.648;9.910;2023-06-26T08:24:59;18.13;;;8.43;;
31652;SDS011;18261;53.648;9.910;2023-06-26T08:27:25;14.60;;;8.93;;
31652;SDS011;18261;53.648;9.910;2023-06-26T08:29:51;12.00;;;8.30;;
31652;SDS011;18261;53.648;9.910;2023-06-26T08:32:17;15.13;;;8.55;;
31652;SDS011;18261;53.648;9.910;2023-06-26T08:34:43;10.93;;;7.70;;
31652;SDS011;18261;53.648;9.910;2023-06-26T08:37:09;13.35;;;7.53;;
31652;SDS011;18261;53.648;9.910;2023-06-26T08:39:35;12.60;;;8.57;;
31652;SDS011;18261;53.648;9.910;2023-06-26T08:42:01;10.95;;;8.02;;
31652;SDS011;18261;53.648;9.910;2023-06-26T08:44:27;12.02;;;8.25;;
31652;SDS011;18261;53.648;9.910;2023-06-26T08:46:53;10.02;;;8.07;;
31652;SDS011;18261;53.648;9.910;2023-06-26T08:52:13;13.40;;;9.30;;
31652;SDS011;18261;53.648;9.910;2023-06-26T08:54:42;13.27;;;9.52;;
31652;SDS011;18261;53.648;9.910;2023-06-26T08:57:11;14.77;;;9.18;;
31652;SDS011;18261;53.648;9.910;2023-06-26T08:59:37;15.23;;;10.57;;
31652;SDS011;18261;53.648;9.910;2023-06-26T09:02:04;14.48;;;9.98;;
31652;SDS011;18261;53.648;9.910;2023-06-26T09:04:30;12.55;;;9.20;;
31652;SDS011;18261;53.648;9.910;2023-06-26T09:06:56;12.93;;;9.60;;
31652;SDS011;18261;53.648;9.910;2023-06-26T09:09:22;19.10;;;11.80;;
31652;SDS011;18261;53.648;9.910;2023-06-26T09:11:48;16.85;;;10.30;;
31652;SDS011;18261;53.648;9.910;2023-06-26T09:14:14;15.68;;;10.60;;
31652;SDS011;18261;53.648;9.910;2023-06-26T09:16:41;21.10;;;11.25;;
31652;SDS011;18261;53.648;9.910;2023-06-26T09:19:11;16.77;;;10.93;;
31652;SDS011;18261;53.648;9.910;2023-06-26T09:21:40;25.45;;;12.10;;
31652;SDS011;18261;53.648;9.910;2023-06-26T09:24:07;21.45;;;12.10;;
31652;SDS011;18261;53.648;9.910;2023-06-26T09:26:35;16.65;;;11.13;;
31652;SDS011;18261;53.648;9.910;2023-06-26T09:29:01;21.73;;;11.50;;
31652;SDS011;18261;53.648;9.910;2023-06-26T09:31:28;25.13;;;12.10;;
31652;SDS011;18261;53.648;9.910;2023-06-26T09:33:58;17.05;;;10.63;;
31652;SDS011;18261;53.648;9.910;2023-06-26T09:36:33;27.52;;;11.80;;
31652;SDS011;18261;53.648;9.910;2023-06-26T09:39:04;29.30;;;10.95;;
31652;SDS011;18261;53.648;9.910;2023-06-26T09:41:33;27.02;;;12.50;;
31652;SDS011;18261;53.648;9.910;2023-06-26T09:44:00;26.85;;;12.30;;
31652;SDS011;18261;53.648;9.910;2023-06-26T09:46:28;21.08;;;11.48;;
31652;SDS011;18261;53.648;9.910;2023-06-26T09:51:32;26.88;;;13.65;;
31652;SDS011;18261;53.648;9.910;2023-06-26T09:53:59;19.58;;;12.00;;
31652;SDS011;18261;53.648;9.910;2023-06-26T09:56:25;23.58;;;12.52;;
31652;SDS011;18261;53.648;9.910;2023-06-26T09:58:52;21.23;;;12.93;;
31652;SDS011;18261;53.648;9.910;2023-06-26T10:01:19;19.20;;;13.02;;
31652;SDS011;18261;53.648;9.910;2023-06-26T10:03:45;20.45;;;12.75;;
31652;SDS011;18261;53.648;9.910;2023-06-26T10:06:11;25.55;;;12.52;;
31652;SDS011;18261;53.648;9.910;2023-06-26T10:08:38;21.65;;;13.73;;
31652;SDS011;18261;53.648;9.910;2023-06-26T10:11:05;30.45;;;13.82;;
31652;SDS011;18261;53.648;9.910;2023-06-26T10:13:34;25.85;;;14.52;;
31652;SDS011;18261;53.648;9.910;2023-06-26T10:16:00;24.95;;;14.40;;
31652;SDS011;18261;53.648;9.910;2023-06-26T10:18:27;24.55;;;14.30;;
31652;SDS011;18261;53.648;9.910;2023-06-26T10:20:53;29.83;;;14.40;;
31652;SDS011;18261;53.648;9.910;2023-06-26T10:23:21;30.35;;;15.23;;
31652;SDS011;18261;53.648;9.910;2023-06-26T10:25:48;32.58;;;16.23;;
31652;SDS011;18261;53.648;9.910;2023-06-26T10:28:16;21.95;;;14.60;;
31652;SDS011;18261;53.648;9.910;2023-06-26T10:30:43;17.75;;;10.90;;
31652;SDS011;18261;53.648;9.910;2023-06-26T10:33:10;17.70;;;10.57;;
31652;SDS011;18261;53.648;9.910;2023-06-26T10:35:45;24.88;;;11.93;;
31652;SDS011;18261;53.648;9.910;2023-06-26T10:38:12;17.83;;;10.55;;
31652;SDS011;18261;53.648;9.910;2023-06-26T10:40:47;19.88;;;10.38;;
31652;SDS011;18261;53.648;9.910;2023-06-26T10:43:15;20.33;;;13.88;;
31652;SDS011;18261;53.648;9.910;2023-06-26T10:45:48;16.85;;;9.50;;
31652;SDS011;18261;53.648;9.910;2023-06-26T10:48:19;25.20;;;15.35;;
31652;SDS011;18261;53.648;9.910;2023-06-26T10:50:48;18.65;;;10.55;;
31652;SDS011;18261;53.648;9.910;2023-06-26T10:55:49;17.65;;;9.70;;
31652;SDS011;18261;53.648;9.910;2023-06-26T11:03:39;17.05;;;8.80;;
31652;SDS011;18261;53.648;9.910;2023-06-26T11:06:08;24.67;;;9.00;;
31652;SDS011;18261;53.648;9.910;2023-06-26T11:11:12;24.38;;;8.88;;
31652;SDS011;18261;53.648;9.910;2023-06-26T11:13:39;26.30;;;9.40;;
31652;SDS011;18261;53.648;9.910;2023-06-26T11:16:05;22.73;;;9.35;;
31652;SDS011;18261;53.648;9.910;2023-06-26T11:18:32;26.75;;;8.13;;
31652;SDS011;18261;53.648;9.910;2023-06-26T11:21:04;21.92;;;7.82;;
31652;SDS011;18261;53.648;9.910;2023-06-26T11:23:31;21.17;;;5.93;;
31652;SDS011;18261;53.648;9.910;2023-06-26T11:25:58;17.52;;;6.78;;
31652;SDS011;18261;53.648;9.910;2023-06-26T11:28:24;23.20;;;6.53;;
31652;SDS011;18261;53.648;9.910;2023-06-26T11:30:50;17.02;;;6.47;;
31652;SDS011;18261;53.648;9.910;2023-06-26T11:33:17;21.25;;;6.50;;
31652;SDS011;18261;53.648;9.910;2023-06-26T11:35:43;21.80;;;5.50;;
31652;SDS011;18261;53.648;9.910;2023-06-26T11:38:09;22.50;;;5.63;;
31652;SDS011;18261;53.648;9.910;2023-06-26T11:40:36;19.38;;;5.40;;
31652;SDS011;18261;53.648;9.910;2023-06-26T11:43:02;20.88;;;5.80;;
31652;SDS011;18261;53.648;9.910;2023-06-26T11:45:29;16.67;;;5.15;;
31652;SDS011;18261;53.648;9.910;2023-06-26T11:47:58;33.78;;;12.73;;
31652;SDS011;18261;53.648;9.910;2023-06-26T11:50:25;18.13;;;5.13;;
31652;SDS011;18261;53.648;9.910;2023-06-26T11:52:55;17.63;;;4.35;;
31652;SDS011;18261;53.648;9.910;2023-06-26T11:55:22;18.50;;;3.60;;
31652;SDS011;18261;53.648;9.910;2023-06-26T11:57:49;13.77;;;3.58;;
31652;SDS011;18261;53.648;9.910;2023-06-26T12:00:15;14.68;;;3.10;;
31652;SDS011;18261;53.648;9.910;2023-06-26T12:02:43;20.55;;;4.22;;
31652;SDS011;18261;53.648;9.910;2023-06-26T12:05:09;15.90;;;3.53;;
31652;SDS011;18261;53.648;9.910;2023-06-26T12:07:36;22.92;;;4.40;;
31652;SDS011;18261;53.648;9.910;2023-06-26T12:10:02;18.63;;;3.88;;
31652;SDS011;18261;53.648;9.910;2023-06-26T12:12:29;20.38;;;3.97;;
31652;SDS011;18261;53.648;9.910;2023-06-26T12:14:56;18.02;;;3.63;;
31652;SDS011;18261;53.648;9.910;2023-06-26T12:17:23;20.33;;;3.80;;
31652;SDS011;18261;53.648;9.910;2023-06-26T12:19:50;18.85;;;4.30;;
31652;SDS011;18261;53.648;9.910;2023-06-26T12:22:16;22.40;;;4.25;;
31652;SDS011;18261;53.648;9.910;2023-06-26T12:24:43;23.25;;;4.60;;
31652;SDS011;18261;53.648;9.910;2023-06-26T12:27:10;16.50;;;3.88;;
31652;SDS011;18261;53.648;9.910;2023-06-26T12:29:37;21.88;;;4.65;;
31652;SDS011;18261;53.648;9.910;2023-06-26T12:32:03;22.65;;;5.28;;
31652;SDS011;18261;53.648;9.910;2023-06-26T12:34:31;17.23;;;4.03;;
31652;SDS011;18261;53.648;9.910;2023-06-26T12:37:01;17.42;;;4.18;;
31652;SDS011;18261;53.648;9.910;2023-06-26T12:39:28;14.13;;;3.83;;
31652;SDS011;18261;53.648;9.910;2023-06-26T12:41:56;27.42;;;4.40;;
31652;SDS011;18261;53.648;9.910;2023-06-26T12:44:27;20.50;;;3.47;;
31652;SDS011;18261;53.648;9.910;2023-06-26T12:46:54;14.93;;;3.38;;
31652;SDS011;18261;53.648;9.910;2023-06-26T12:49:28;21.45;;;3.90;;
31652;SDS011;18261;53.648;9.910;2023-06-26T12:51:54;20.70;;;4.03;;
31652;SDS011;18261;53.648;9.910;2023-06-26T12:54:20;16.17;;;3.15;;
31652;SDS011;18261;53.648;9.910;2023-06-26T12:56:46;12.05;;;3.15;;
31652;SDS011;18261;53.648;9.910;2023-06-26T12:59:12;18.10;;;3.90;;
31652;SDS011;18261;53.648;9.910;2023-06-26T13:01:38;12.70;;;3.30;;
31652;SDS011;18261;53.648;9.910;2023-06-26T13:04:05;11.73;;;3.10;;
31652;SDS011;18261;53.648;9.910;2023-06-26T13:06:31;13.40;;;3.17;;
31652;SDS011;18261;53.648;9.910;2023-06-26T13:08:57;18.85;;;3.75;;
31652;SDS011;18261;53.648;9.910;2023-06-26T13:11:23;16.10;;;3.30;;
31652;SDS011;18261;53.648;9.910;2023-06-26T13:13:49;13.02;;;3.08;;
31652;SDS011;18261;53.648;9.910;2023-06-26T13:16:16;9.15;;;3.00;;
31652;SDS011;18261;53.648;9.910;2023-06-26T13:18:43;13.23;;;3.53;;
31652;SDS011;18261;53.648;9.910;2023-06-26T13:21:09;11.10;;;2.90;;
31652;SDS011;18261;53.648;9.910;2023-06-26T13:23:35;12.48;;;2.92;;
31652;SDS011;18261;53.648;9.910;2023-06-26T13:26:01;12.45;;;2.72;;
31652;SDS011;18261;53.648;9.910;2023-06-26T13:28:27;10.35;;;2.70;;
31652;SDS011;18261;53.648;9.910;2023-06-26T13:30:53;18.17;;;3.55;;
31652;SDS011;18261;53.648;9.910;2023-06-26T13:33:19;38.67;;;16.67;;
31652;SDS011;18261;53.648;9.910;2023-06-26T13:35:45;12.77;;;3.38;;
31652;SDS011;18261;53.648;9.910;2023-06-26T13:38:11;13.82;;;5.07;;
31652;SDS011;18261;53.648;9.910;2023-06-26T13:40:37;12.75;;;2.45;;
31652;SDS011;18261;53.648;9.910;2023-06-26T13:43:03;8.00;;;2.38;;
31652;SDS011;18261;53.648;9.910;2023-06-26T13:45:29;14.57;;;2.97;;
31652;SDS011;18261;53.648;9.910;2023-06-26T13:47:55;15.52;;;2.67;;
31652;SDS011;18261;53.648;9.910;2023-06-26T13:50:21;11.68;;;2.30;;
31652;SDS011;18261;53.648;9.910;2023-06-26T13:52:47;10.32;;;2.38;;
31652;SDS011;18261;53.648;9.910;2023-06-26T13:55:13;7.45;;;2.22;;
31652;SDS011;18261;53.648;9.910;2023-06-26T13:57:39;6.72;;;2.17;;
31652;SDS011;18261;53.648;9.910;2023-06-26T14:00:07;12.38;;;2.50;;
31652;SDS011;18261;53.648;9.910;2023-06-26T14:02:33;8.13;;;2.53;;
31652;SDS011;18261;53.648;9.910;2023-06-26T14:04:59;9.55;;;2.25;;
31652;SDS011;18261;53.648;9.910;2023-06-26T14:07:25;10.50;;;2.50;;
31652;SDS011;18261;53.648;9.910;2023-06-26T14:09:51;14.07;;;2.67;;
31652;SDS011;18261;53.648;9.910;2023-06-26T14:12:17;6.72;;;2.20;;
31652;SDS011;18261;53.648;9.910;2023-06-26T14:14:43;9.95;;;2.38;;
31652;SDS011;18261;53.648;9.910;2023-06-26T14:17:09;8.15;;;2.50;;
31652;SDS011;18261;53.648;9.910;2023-06-26T14:19:41;12.60;;;2.47;;
31652;SDS011;18261;53.648;9.910;2023-06-26T14:22:07;10.60;;;1.98;;
31652;SDS011;18261;53.648;9.910;2023-06-26T14:24:33;12.35;;;2.65;;
31652;SDS011;18261;53.648;9.910;2023-06-26T14:26:59;9.50;;;2.50;;
31652;SDS011;18261;53.648;9.910;2023-06-26T14:29:25;11.73;;;2.65;;
31652;SDS011;18261;53.648;9.910;2023-06-26T14:31:50;18.85;;;2.85;;
31652;SDS011;18261;53.648;9.910;2023-06-26T14:34:16;6.88;;;2.40;;
31652;SDS011;18261;53.648;9.910;2023-06-26T14:36:42;10.82;;;1.90;;
31652;SDS011;18261;53.648;9.910;2023-06-26T14:39:08;11.38;;;2.40;;
31652;SDS011;18261;53.648;9.910;2023-06-26T14:41:35;10.07;;;2.80;;
31652;SDS011;18261;53.648;9.910;2023-06-26T14:44:01;6.43;;;2.10;;
31652;SDS011;18261;53.648;9.910;2023-06-26T14:46:27;10.52;;;2.40;;
31652;SDS011;18261;53.648;9.910;2023-06-26T14:48:53;8.27;;;2.13;;